Time;durP1;ratioP1;P1;durP2;ratioP2;P2;SDS_P1;SDS_P2;PMS_P1;PMS_P2;Temp;Humidity;BMP_temperature;BMP_pressure;BME280_temperature;BME280_humidity;BME280_pressure;Samples;Min_cycle;Max_cycle;Signal;HPM_P1;HPM_P2
2022/03/20 00:01:47;;;;;;;21.02;7.63;;;;;;;;;;6218054;28;20050;-73
2022/03/20 00:04:53;;;;;;;16.10;6.85;;;;;;;;;;6217657;28;20056;-73
2022/03/20 00:07:56;;;;;;;15.73;6.60;;;;;;;;;;6218153;28;20153;-73
2022/03/20 00:11:02;;;;;;;16.13;6.22;;;;;;;;;;6232267;28;20401;-73
2022/03/20 00:14:05;;;;;;;14.07;7.00;;;;;;;;;;6217908;28;20060;-73
2022/03/20 00:17:08;;;;;;;14.25;6.22;;;;;;;;;;6217544;28;20041;-73
2022/03/20 00:20:12;;;;;;;16.10;6.57;;;;;;;;;;6217020;28;20100;-73
2022/03/20 00:23:16;;;;;;;14.18;6.15;;;;;;;;;;6220876;28;20054;-73
2022/03/20 00:26:19;;;;;;;12.80;6.00;;;;;;;;;;6222106;28;20440;-73
2022/03/20 00:29:22;;;;;;;13.45;6.70;;;;;;;;;;6222018;28;20476;-73
2022/03/20 00:32:24;;;;;;;12.77;6.70;;;;;;;;;;6237212;28;20052;-73
2022/03/20 00:35:29;;;;;;;11.73;5.63;;;;;;;;;;6221945;28;20053;-73
2022/03/20 00:38:37;;;;;;;12.57;6.32;;;;;;;;;;6221884;28;20525;-73
2022/03/20 00:41:40;;;;;;;12.70;7.22;;;;;;;;;;6221408;28;20046;-73
2022/03/20 00:44:43;;;;;;;16.23;7.18;;;;;;;;;;6222131;28;20052;-72
2022/03/20 00:47:48;;;;;;;14.30;6.88;;;;;;;;;;6221654;28;20041;-72
2022/03/20 00:50:52;;;;;;;12.77;6.13;;;;;;;;;;6221323;28;20060;-72
2022/03/20 00:53:57;;;;;;;13.10;6.63;;;;;;;;;;6220205;28;20389;-73
2022/03/20 00:57:00;;;;;;;17.00;7.40;;;;;;;;;;6221369;28;20048;-74
2022/03/20 01:00:04;;;;;;;14.95;6.22;;;;;;;;;;6221460;28;20045;-72
2022/03/20 01:03:07;;;;;;;15.13;7.18;;;;;;;;;;6220966;28;20125;-73
2022/03/20 01:06:12;;;;;;;14.48;7.07;;;;;;;;;;6236355;28;20057;-73
2022/03/20 01:09:19;;;;;;;16.67;7.40;;;;;;;;;;6221198;28;20049;-74
2022/03/20 01:12:22;;;;;;;21.02;8.20;;;;;;;;;;6220673;28;20389;-74
2022/03/20 01:15:25;;;;;;;16.27;7.10;;;;;;;;;;6220950;28;20046;-74
2022/03/20 01:18:28;;;;;;;15.70;7.43;;;;;;;;;;6220697;28;20061;-73
2022/03/20 01:21:33;;;;;;;14.95;7.07;;;;;;;;;;6221250;28;20042;-74
2022/03/20 01:24:36;;;;;;;12.38;6.57;;;;;;;;;;6220606;28;20057;-75
2022/03/20 01:27:39;;;;;;;19.55;7.43;;;;;;;;;;6220819;28;20054;-74
2022/03/20 01:30:42;;;;;;;14.43;6.95;;;;;;;;;;6221092;28;20476;-75
2022/03/20 01:33:45;;;;;;;14.45;6.63;;;;;;;;;;6219065;28;20409;-75
2022/03/20 01:36:52;;;;;;;14.55;6.63;;;;;;;;;;6235905;28;20053;-74
2022/03/20 01:39:55;;;;;;;13.43;6.70;;;;;;;;;;6235827;28;20141;-74
2022/03/20 01:42:58;;;;;;;14.10;6.45;;;;;;;;;;6220512;28;20054;-74
2022/03/20 01:46:02;;;;;;;12.38;6.53;;;;;;;;;;6220132;28;20046;-73
2022/03/20 01:49:08;;;;;;;14.25;6.50;;;;;;;;;;6219055;28;20089;-74
2022/03/20 01:52:13;;;;;;;14.20;6.82;;;;;;;;;;6220830;28;20042;-74
2022/03/20 01:55:17;;;;;;;14.27;6.60;;;;;;;;;;6219842;28;20100;-74
2022/03/20 01:58:20;;;;;;;15.25;7.28;;;;;;;;;;6220143;28;20500;-74
2022/03/20 02:01:23;;;;;;;15.45;7.40;;;;;;;;;;6218617;28;20053;-74
2022/03/20 02:04:26;;;;;;;13.90;7.13;;;;;;;;;;6219798;28;20042;-74
2022/03/20 02:07:34;;;;;;;14.88;7.05;;;;;;;;;;6219605;28;20052;-74
2022/03/20 02:10:37;;;;;;;20.40;7.60;;;;;;;;;;6219797;28;20255;-74
2022/03/20 02:13:41;;;;;;;15.43;7.10;;;;;;;;;;6219814;28;20050;-74
2022/03/20 02:16:46;;;;;;;14.18;6.80;;;;;;;;;;6234561;28;20427;-73
2022/03/20 02:19:49;;;;;;;14.45;6.95;;;;;;;;;;6219589;28;20050;-74
2022/03/20 02:22:53;;;;;;;15.23;7.50;;;;;;;;;;6219429;28;20046;-74
2022/03/20 02:25:58;;;;;;;16.48;7.75;;;;;;;;;;6219367;28;20107;-74
2022/03/20 02:29:06;;;;;;;14.48;7.03;;;;;;;;;;6219198;28;20053;-74
2022/03/20 02:32:09;;;;;;;15.52;7.55;;;;;;;;;;6219339;28;20049;-74
2022/03/20 02:35:16;;;;;;;17.73;7.30;;;;;;;;;;6219995;28;20038;-74
2022/03/20 02:38:23;;;;;;;15.82;7.72;;;;;;;;;;6218617;28;20061;-74
2022/03/20 02:41:28;;;;;;;15.75;7.40;;;;;;;;;;6219059;28;20041;-74
2022/03/20 02:44:49;;;;;;;14.88;7.50;;;;;;;;;;6217481;28;20050;-74
2022/03/20 02:47:52;;;;;;;15.60;7.63;;;;;;;;;;6219011;28;20061;-74
2022/03/20 02:50:55;;;;;;;13.77;7.15;;;;;;;;;;6218487;28;20046;-75
2022/03/20 02:53:59;;;;;;;11.98;6.38;;;;;;;;;;6218775;28;20195;-73
2022/03/20 02:57:05;;;;;;;16.77;7.43;;;;;;;;;;6218775;28;20046;-74
2022/03/20 03:00:11;;;;;;;14.27;7.28;;;;;;;;;;6218111;28;20449;-73
2022/03/20 03:03:16;;;;;;;15.60;7.00;;;;;;;;;;6218639;28;20041;-74
2022/03/20 03:06:19;;;;;;;15.23;7.85;;;;;;;;;;6218450;28;20512;-74
2022/03/20 03:12:47;;;;;;;15.27;7.05;;;;;;;;;;6218056;28;20042;-75
2022/03/20 03:15:51;;;;;;;15.15;7.00;;;;;;;;;;6218299;28;20049;-74
2022/03/20 03:18:57;;;;;;;13.27;6.72;;;;;;;;;;6218780;28;20038;-74
2022/03/20 03:22:01;;;;;;;17.92;8.75;;;;;;;;;;6218001;28;20041;-74
2022/03/20 03:25:08;;;;;;;13.98;7.10;;;;;;;;;;6218311;28;20050;-74
2022/03/20 03:28:11;;;;;;;18.33;8.00;;;;;;;;;;6223382;28;20041;-74
2022/03/20 03:31:14;;;;;;;15.50;7.55;;;;;;;;;;6232646;28;20107;-74
2022/03/20 03:37:38;;;;;;;16.35;8.32;;;;;;;;;;6222266;28;20112;-74
2022/03/20 03:40:44;;;;;;;16.02;7.45;;;;;;;;;;6218279;28;20393;-75
2022/03/20 03:43:49;;;;;;;17.08;8.27;;;;;;;;;;6217950;28;20484;-75
2022/03/20 03:46:57;;;;;;;16.42;8.30;;;;;;;;;;6218064;28;20065;-74
2022/03/20 03:50:00;;;;;;;18.15;8.02;;;;;;;;;;6218199;28;20050;-76
2022/03/20 03:53:04;;;;;;;17.10;7.55;;;;;;;;;;6218173;28;20054;-74
2022/03/20 03:56:08;;;;;;;18.27;7.57;;;;;;;;;;6217358;28;20049;-74
2022/03/20 03:59:13;;;;;;;15.13;7.18;;;;;;;;;;6237639;28;20053;-74
2022/03/20 04:02:19;;;;;;;15.88;7.53;;;;;;;;;;6223769;28;20077;-75
2022/03/20 04:05:22;;;;;;;17.35;7.85;;;;;;;;;;6222518;28;20046;-74
2022/03/20 04:08:25;;;;;;;16.60;7.93;;;;;;;;;;6222619;28;20074;-74
2022/03/20 04:11:33;;;;;;;16.10;7.80;;;;;;;;;;6222449;28;20072;-74
2022/03/20 04:14:36;;;;;;;16.08;7.75;;;;;;;;;;6222534;28;20053;-74
2022/03/20 04:17:40;;;;;;;19.08;7.85;;;;;;;;;;6237148;28;20042;-74
2022/03/20 04:20:44;;;;;;;15.32;7.65;;;;;;;;;;6222346;28;20124;-74
2022/03/20 04:23:49;;;;;;;16.33;7.53;;;;;;;;;;6237669;28;20252;-74
2022/03/20 04:26:57;;;;;;;17.63;9.02;;;;;;;;;;6237225;28;20057;-75
2022/03/20 04:30:00;;;;;;;;;;;;;;;;;;6222571;28;20053;-75
2022/03/20 04:33:04;;;;;;;17.45;7.80;;;;;;;;;;6221995;28;19921;-75
2022/03/20 04:36:09;;;;;;;17.42;8.18;;;;;;;;;;6222677;28;20506;-74
2022/03/20 04:39:12;;;;;;;14.65;7.30;;;;;;;;;;6221544;28;20058;-74
2022/03/20 04:42:18;;;;;;;17.80;7.75;;;;;;;;;;6222273;28;20057;-74
2022/03/20 04:45:24;;;;;;;17.13;7.68;;;;;;;;;;6222030;28;20415;-74
2022/03/20 04:58:43;;;;;;;15.85;7.50;;;;;;;;;;6198338;28;20073;-73
2022/03/20 05:01:46;;;;;;;18.10;7.95;;;;;;;;;;6221386;28;20093;-73
2022/03/20 05:04:51;;;;;;;18.52;8.07;;;;;;;;;;6236333;28;20125;-73
2022/03/20 05:07:56;;;;;;;18.05;8.23;;;;;;;;;;6221212;28;20050;-73
2022/03/20 05:14:24;;;;;;;18.25;8.40;;;;;;;;;;6221054;28;20046;-73
2022/03/20 05:17:28;;;;;;;16.83;7.75;;;;;;;;;;6221386;28;20042;-73
2022/03/20 05:20:31;;;;;;;19.42;8.93;;;;;;;;;;6221152;28;20042;-73
2022/03/20 05:23:34;;;;;;;18.52;9.35;;;;;;;;;;6221005;28;20045;-72
2022/03/20 05:26:39;;;;;;;19.33;8.82;;;;;;;;;;6220670;28;20054;-72
2022/03/20 05:29:43;;;;;;;19.15;8.63;;;;;;;;;;6235965;28;20481;-73
2022/03/20 05:32:47;;;;;;;17.63;9.38;;;;;;;;;;6220946;28;20053;-73
2022/03/20 05:35:53;;;;;;;18.90;8.93;;;;;;;;;;6220281;28;20446;-73
2022/03/20 05:38:57;;;;;;;22.23;9.35;;;;;;;;;;6220353;28;20058;-73
2022/03/20 05:42:00;;;;;;;19.52;9.20;;;;;;;;;;6220451;28;20053;-73
2022/03/20 05:45:05;;;;;;;22.08;9.82;;;;;;;;;;6220388;28;20045;-73
2022/03/20 05:48:08;;;;;;;17.73;9.35;;;;;;;;;;6220197;28;20053;-73
2022/03/20 05:51:11;;;;;;;19.10;9.27;;;;;;;;;;6220235;28;20471;-73
2022/03/20 05:54:15;;;;;;;19.55;9.52;;;;;;;;;;6220358;28;20041;-74
2022/03/20 06:00:41;;;;;;;20.40;10.02;;;;;;;;;;6219885;28;20060;-75
2022/03/20 06:03:44;;;;;;;;;;;;;;;;;;6220209;28;20057;-73
2022/03/20 06:06:48;;;;;;;18.25;9.98;;;;;;;;;;6219837;28;20356;-74
2022/03/20 06:09:51;;;;;;;22.08;9.85;;;;;;;;;;6219789;28;20096;-73
2022/03/20 06:12:54;;;;;;;20.42;10.75;;;;;;;;;;6234657;28;20038;-73
2022/03/20 06:16:01;;;;;;;16.92;9.25;;;;;;;;;;6219714;28;20064;-73
2022/03/20 06:19:05;;;;;;;22.42;10.25;;;;;;;;;;6219348;28;20120;-74
2022/03/20 06:22:08;;;;;;;21.33;10.98;;;;;;;;;;6218913;28;20042;-74
2022/03/20 06:25:15;;;;;;;22.15;10.20;;;;;;;;;;6218043;28;20050;-74
2022/03/20 06:28:18;;;;;;;22.77;10.32;;;;;;;;;;6219220;28;20045;-74
2022/03/20 06:31:23;;;;;;;21.35;10.75;;;;;;;;;;6234082;28;20048;-74
2022/03/20 06:34:34;;;;;;;17.75;9.40;;;;;;;;;;6219203;28;20054;-74
2022/03/20 06:37:40;;;;;;;18.00;9.20;;;;;;;;;;6218924;28;20046;-74
2022/03/20 06:40:43;;;;;;;18.40;9.48;;;;;;;;;;6233698;28;20420;-73
2022/03/20 06:43:46;;;;;;;18.27;9.85;;;;;;;;;;6218884;28;20041;-74
2022/03/20 06:46:51;;;;;;;15.82;9.63;;;;;;;;;;6218904;28;20046;-73
2022/03/20 06:49:57;;;;;;;19.80;9.73;;;;;;;;;;6218842;28;20046;-72
2022/03/20 06:53:04;;;;;;;19.65;10.55;;;;;;;;;;6218361;28;20049;-72
2022/03/20 06:56:09;;;;;;;15.73;8.98;;;;;;;;;;6218635;28;20381;-74
2022/03/20 06:59:14;;;;;;;19.95;9.18;;;;;;;;;;6218769;28;20042;-73
2022/03/20 07:02:20;;;;;;;17.40;8.80;;;;;;;;;;6218358;28;20447;-72
2022/03/20 07:05:24;;;;;;;16.60;8.82;;;;;;;;;;6219241;28;20081;-73
2022/03/20 07:08:28;;;;;;;21.25;9.38;;;;;;;;;;6233051;28;20069;-75
2022/03/20 07:11:33;;;;;;;18.33;9.18;;;;;;;;;;6237625;28;20515;-73
2022/03/20 07:14:36;;;;;;;17.33;9.32;;;;;;;;;;6234306;28;20053;-74
2022/03/20 07:17:40;;;;;;;16.98;8.95;;;;;;;;;;6217843;28;20049;-73
2022/03/20 07:20:46;;;;;;;17.15;9.02;;;;;;;;;;6218124;28;20484;-73
2022/03/20 07:23:54;;;;;;;17.75;9.32;;;;;;;;;;6217830;28;20054;-73
2022/03/20 07:30:17;;;;;;;17.38;9.02;;;;;;;;;;6218215;28;20057;-74
2022/03/20 07:33:22;;;;;;;16.27;8.70;;;;;;;;;;6217181;28;20057;-73
2022/03/20 07:36:30;;;;;;;14.95;8.50;;;;;;;;;;6232645;28;20042;-73
2022/03/20 07:39:33;;;;;;;14.82;8.27;;;;;;;;;;6232734;28;20049;-75
2022/03/20 07:42:38;;;;;;;15.88;8.35;;;;;;;;;;6218116;28;20492;-73
2022/03/20 07:45:41;;;;;;;16.05;8.40;;;;;;;;;;6217406;28;20068;-73
2022/03/20 07:48:50;;;;;;;17.10;9.02;;;;;;;;;;6217756;28;20042;-73
2022/03/20 07:51:57;;;;;;;14.73;8.40;;;;;;;;;;6217625;28;20054;-75
2022/03/20 07:55:01;;;;;;;15.95;8.52;;;;;;;;;;6217677;28;20049;-73
2022/03/20 07:58:05;;;;;;;15.75;8.57;;;;;;;;;;6217312;28;20037;-73
2022/03/20 08:01:08;;;;;;;16.45;8.60;;;;;;;;;;6217988;28;20375;-75
2022/03/20 08:04:12;;;;;;;17.55;8.05;;;;;;;;;;6217737;28;20570;-73
2022/03/20 08:07:15;;;;;;;15.63;7.82;;;;;;;;;;6217141;28;20057;-73
2022/03/20 08:10:18;;;;;;;17.83;8.23;;;;;;;;;;6217354;28;20046;-73
2022/03/20 08:13:21;;;;;;;16.73;8.05;;;;;;;;;;6217437;28;20263;-74
2022/03/20 08:16:26;;;;;;;15.32;8.30;;;;;;;;;;6217660;28;20053;-74
2022/03/20 08:19:31;;;;;;;15.02;7.88;;;;;;;;;;6217399;28;20545;-74
2022/03/20 08:22:34;;;;;;;14.17;7.60;;;;;;;;;;6232397;28;20056;-74
2022/03/20 08:25:38;;;;;;;14.82;7.82;;;;;;;;;;6217409;28;20291;-74
2022/03/20 08:28:41;;;;;;;16.20;8.00;;;;;;;;;;6216882;28;20544;-72
2022/03/20 08:31:47;;;;;;;15.43;7.45;;;;;;;;;;6217178;28;20046;-74
2022/03/20 08:34:54;;;;;;;16.48;8.43;;;;;;;;;;6217653;28;20049;-73
2022/03/20 08:37:57;;;;;;;16.05;8.32;;;;;;;;;;6217121;28;20058;-73
2022/03/20 08:41:00;;;;;;;13.27;7.72;;;;;;;;;;6217172;28;20049;-73
2022/03/20 08:44:04;;;;;;;15.57;8.35;;;;;;;;;;6219304;28;20050;-75
2022/03/20 08:47:07;;;;;;;15.70;7.82;;;;;;;;;;6221727;28;20453;-74
2022/03/20 08:50:13;;;;;;;16.00;8.55;;;;;;;;;;6221351;28;20052;-74
2022/03/20 08:53:18;;;;;;;15.45;9.10;;;;;;;;;;6221748;28;20042;-73
2022/03/20 08:56:21;;;;;;;14.10;8.15;;;;;;;;;;6219994;28;20478;-74
2022/03/20 08:59:24;;;;;;;14.82;7.80;;;;;;;;;;6220699;28;20484;-74
2022/03/20 09:02:27;;;;;;;14.65;7.60;;;;;;;;;;6235819;28;20054;-74
2022/03/20 09:05:31;;;;;;;14.23;8.15;;;;;;;;;;6220907;28;20061;-74
2022/03/20 09:08:37;;;;;;;18.67;8.00;;;;;;;;;;6236029;28;20053;-74
2022/03/20 09:11:41;;;;;;;13.15;6.95;;;;;;;;;;6235632;28;20053;-74
2022/03/20 09:14:46;;;;;;;13.90;7.95;;;;;;;;;;6220939;28;20046;-74
2022/03/20 09:21:11;;;;;;;13.52;7.05;;;;;;;;;;6220665;28;20479;-74
2022/03/20 09:24:17;;;;;;;14.15;6.95;;;;;;;;;;6235599;28;20050;-74
2022/03/20 09:27:22;;;;;;;13.13;6.85;;;;;;;;;;6220264;28;20042;-74
2022/03/20 09:30:26;;;;;;;9.90;6.10;;;;;;;;;;6220759;28;20046;-74
2022/03/20 09:33:31;;;;;;;13.52;7.03;;;;;;;;;;6235508;28;20046;-74
2022/03/20 09:36:36;;;;;;;11.52;6.57;;;;;;;;;;6220333;28;20046;-73
2022/03/20 09:39:40;;;;;;;15.13;7.30;;;;;;;;;;6220556;28;20463;-73
2022/03/20 09:42:45;;;;;;;10.90;6.53;;;;;;;;;;6220208;28;20072;-74
2022/03/20 09:45:49;;;;;;;11.23;6.95;;;;;;;;;;6220443;28;20052;-76
2022/03/20 09:48:52;;;;;;;11.52;7.43;;;;;;;;;;6220015;28;20096;-73
2022/03/20 09:51:59;;;;;;;16.52;7.38;;;;;;;;;;6220291;28;20534;-73
2022/03/20 09:55:03;;;;;;;12.05;7.13;;;;;;;;;;6218791;28;20049;-73
2022/03/20 09:58:06;;;;;;;12.20;7.07;;;;;;;;;;6219843;28;20439;-74
2022/03/20 10:01:09;;;;;;;17.17;7.20;;;;;;;;;;6220250;28;20125;-75
2022/03/20 10:04:14;;;;;;;13.20;7.05;;;;;;;;;;6219662;28;20050;-73
2022/03/20 10:07:22;;;;;;;12.77;7.10;;;;;;;;;;6234746;28;20407;-75
2022/03/20 10:10:27;;;;;;;13.00;7.47;;;;;;;;;;6234817;28;20046;-75
2022/03/20 10:13:29;;;;;;;13.48;7.05;;;;;;;;;;6219625;28;20073;-73
2022/03/20 10:16:33;;;;;;;15.15;7.18;;;;;;;;;;6219381;28;20050;-73
2022/03/20 10:19:36;;;;;;;11.45;6.93;;;;;;;;;;6219701;28;20056;-75
2022/03/20 10:22:40;;;;;;;12.25;6.90;;;;;;;;;;6219798;28;20053;-74
2022/03/20 10:25:50;;;;;;;13.38;7.35;;;;;;;;;;6219103;28;20412;-75
2022/03/20 10:28:55;;;;;;;13.45;7.30;;;;;;;;;;6219125;28;20056;-75
2022/03/20 10:32:00;;;;;;;15.55;7.65;;;;;;;;;;6219231;28;20050;-75
2022/03/20 10:35:06;;;;;;;14.25;6.95;;;;;;;;;;6224270;28;20049;-75
2022/03/20 10:38:14;;;;;;;13.57;7.20;;;;;;;;;;6239502;28;20098;-74
2022/03/20 10:41:19;;;;;;;13.73;7.40;;;;;;;;;;6228411;28;20042;-76
2022/03/20 10:44:24;;;;;;;12.00;6.90;;;;;;;;;;6219433;28;20124;-74
2022/03/20 10:47:30;;;;;;;12.95;7.68;;;;;;;;;;6219168;28;20054;-73
2022/03/20 10:50:33;;;;;;;12.90;7.47;;;;;;;;;;6218745;28;20454;-75
2022/03/20 10:53:51;;;;;;;11.18;7.05;;;;;;;;;;6219106;28;20648;-75
2022/03/20 10:56:56;;;;;;;17.25;7.30;;;;;;;;;;6219190;28;20053;-73
2022/03/20 11:00:00;;;;;;;12.05;7.13;;;;;;;;;;6217188;28;20092;-75
2022/03/20 11:03:04;;;;;;;14.60;8.02;;;;;;;;;;6218634;28;20077;-75
2022/03/20 11:06:10;;;;;;;13.02;7.97;;;;;;;;;;6219213;28;20049;-74
2022/03/20 11:09:15;;;;;;;14.07;7.30;;;;;;;;;;6233497;28;20137;-73
2022/03/20 11:12:24;;;;;;;10.95;6.80;;;;;;;;;;6218676;28;20048;-75
2022/03/20 11:15:29;;;;;;;12.25;7.28;;;;;;;;;;6218448;28;20100;-75
2022/03/20 11:18:39;;;;;;;10.38;6.95;;;;;;;;;;6218713;28;20057;-73
2022/03/20 11:21:44;;;;;;;11.27;6.90;;;;;;;;;;6218570;28;20049;-74
2022/03/20 11:24:52;;;;;;;11.80;7.38;;;;;;;;;;6218310;28;20168;-75
2022/03/20 11:28:01;;;;;;;11.73;7.07;;;;;;;;;;6218471;28;20499;-73
2022/03/20 11:31:04;;;;;;;12.70;6.90;;;;;;;;;;6233196;28;20045;-74
2022/03/20 11:34:10;;;;;;;10.90;6.43;;;;;;;;;;6218077;28;20173;-74
2022/03/20 11:37:15;;;;;;;11.05;6.25;;;;;;;;;;6218028;28;20481;-73
2022/03/20 11:40:21;;;;;;;11.90;6.57;;;;;;;;;;6217971;28;20125;-75
2022/03/20 11:43:24;;;;;;;11.90;6.50;;;;;;;;;;6217700;28;20061;-74
2022/03/20 11:46:30;;;;;;;11.27;6.57;;;;;;;;;;6218351;28;20042;-75
2022/03/20 11:49:40;;;;;;;9.15;6.10;;;;;;;;;;6218389;28;20073;-74
2022/03/20 11:52:47;;;;;;;10.50;7.30;;;;;;;;;;6217809;28;20049;-74
2022/03/20 11:55:51;;;;;;;10.95;5.72;;;;;;;;;;6232563;28;20485;-74
2022/03/20 11:58:54;;;;;;;15.63;6.63;;;;;;;;;;6232639;28;20562;-75
2022/03/20 12:02:02;;;;;;;10.65;6.28;;;;;;;;;;6217860;28;20404;-75
2022/03/20 12:05:10;;;;;;;10.27;6.45;;;;;;;;;;6232430;28;20408;-75
2022/03/20 12:08:25;;;;;;;13.10;6.53;;;;;;;;;;6217190;28;20062;-74
2022/03/20 12:11:34;;;;;;;10.23;6.53;;;;;;;;;;6217642;28;20128;-75
2022/03/20 12:14:41;;;;;;;10.80;6.40;;;;;;;;;;6218296;28;20050;-75
2022/03/20 12:17:57;;;;;;;10.10;6.28;;;;;;;;;;6232616;28;20056;-74
2022/03/20 12:21:02;;;;;;;8.40;5.32;;;;;;;;;;6222176;28;20046;-75
2022/03/20 12:24:25;;;;;;;10.35;6.30;;;;;;;;;;6222676;28;20046;-74
2022/03/20 12:27:45;;;;;;;10.05;6.15;;;;;;;;;;6222058;28;20501;-75
2022/03/20 12:30:51;;;;;;;10.35;6.05;;;;;;;;;;6237130;28;20132;-75
2022/03/20 12:34:13;;;;;;;10.25;5.88;;;;;;;;;;6222084;28;20057;-74
2022/03/20 12:37:40;;;;;;;8.48;5.28;;;;;;;;;;6222632;28;20042;-73
2022/03/20 12:40:44;;;;;;;12.25;5.60;;;;;;;;;;6221849;28;20417;-75
2022/03/20 12:43:49;;;;;;;;;;;;;;;;;;6222333;28;20048;-75
2022/03/20 12:46:53;;;;;;;8.35;5.07;;;;;;;;;;6221422;28;19921;-75
2022/03/20 12:49:57;;;;;;;8.43;5.25;;;;;;;;;;6222078;28;20074;-74
2022/03/20 12:53:05;;;;;;;11.10;5.05;;;;;;;;;;6221929;28;20050;-75
2022/03/20 12:56:14;;;;;;;9.93;5.72;;;;;;;;;;6221423;28;20523;-74
2022/03/20 12:59:20;;;;;;;9.82;5.32;;;;;;;;;;6221225;28;20049;-74
2022/03/20 13:02:26;;;;;;;9.40;5.60;;;;;;;;;;6221818;28;20061;-74
2022/03/20 13:05:30;;;;;;;10.18;5.28;;;;;;;;;;6221668;28;20046;-74
2022/03/20 13:08:38;;;;;;;9.07;5.03;;;;;;;;;;6236493;28;20057;-74
2022/03/20 13:11:56;;;;;;;10.77;5.60;;;;;;;;;;6221384;28;20488;-74
2022/03/20 13:14:59;;;;;;;10.63;6.10;;;;;;;;;;6220732;28;20430;-74
2022/03/20 13:18:05;;;;;;;10.45;5.80;;;;;;;;;;6235699;28;20042;-74
2022/03/20 13:21:07;;;;;;;14.15;6.30;;;;;;;;;;6220415;28;20052;-73
2022/03/20 13:24:13;;;;;;;;;;;;;;;;;;6221344;28;20265;-73
2022/03/20 13:27:18;;;;;;;12.45;6.35;;;;;;;;;;6220553;28;19944;-75
2022/03/20 13:30:32;;;;;;;11.38;6.40;;;;;;;;;;6219100;28;20566;-76
2022/03/20 13:33:37;;;;;;;10.65;6.15;;;;;;;;;;6221053;28;20054;-75
2022/03/20 13:36:46;;;;;;;13.73;5.78;;;;;;;;;;6220248;28;20409;-76
2022/03/20 13:39:52;;;;;;;13.25;6.40;;;;;;;;;;6219784;28;20104;-73
2022/03/20 13:42:55;;;;;;;9.68;5.45;;;;;;;;;;6219941;28;20064;-75
2022/03/20 13:46:09;;;;;;;9.52;5.40;;;;;;;;;;6219875;28;20046;-73
2022/03/20 13:49:14;;;;;;;8.23;5.00;;;;;;;;;;6220388;28;20045;-74
2022/03/20 13:52:26;;;;;;;10.32;6.20;;;;;;;;;;6219642;28;20126;-75
2022/03/20 13:55:34;;;;;;;7.72;4.80;;;;;;;;;;6220587;28;20049;-73
2022/03/20 13:58:37;;;;;;;9.70;5.30;;;;;;;;;;6233063;28;20049;-74
2022/03/20 14:01:44;;;;;;;11.27;4.95;;;;;;;;;;6219628;28;20444;-75
2022/03/20 14:04:50;;;;;;;12.20;4.78;;;;;;;;;;6220261;28;20042;-73
2022/03/20 14:08:08;;;;;;;9.57;5.93;;;;;;;;;;6219769;28;20053;-75
2022/03/20 14:11:11;;;;;;;9.38;6.00;;;;;;;;;;6219787;28;20480;-75
2022/03/20 14:14:14;;;;;;;10.82;6.18;;;;;;;;;;6219445;28;20057;-75
2022/03/20 14:17:18;;;;;;;9.10;5.80;;;;;;;;;;6219276;28;20467;-75
2022/03/20 14:20:26;;;;;;;9.30;5.60;;;;;;;;;;6219850;28;20056;-75
2022/03/20 14:23:31;;;;;;;8.25;5.05;;;;;;;;;;6219138;28;20133;-75
2022/03/20 14:26:35;;;;;;;7.55;4.95;;;;;;;;;;6234658;28;20100;-75
2022/03/20 14:39:56;;;;;;;10.70;5.57;;;;;;;;;;6218806;28;20602;-74
2022/03/20 14:43:01;;;;;;;;;;;;;;;;;;6234727;28;20052;-74
2022/03/20 14:46:05;;;;;;;9.70;6.05;;;;;;;;;;6219212;28;19944;-74
2022/03/20 14:49:08;;;;;;;7.88;5.13;;;;;;;;;;6218763;28;20488;-74
2022/03/20 14:52:15;;;;;;;9.18;5.20;;;;;;;;;;6218503;28;20049;-74
2022/03/20 14:55:19;;;;;;;8.32;4.65;;;;;;;;;;6219394;28;20615;-75
2022/03/20 14:58:25;;;;;;;8.40;4.68;;;;;;;;;;6217785;28;20092;-75
2022/03/20 15:01:28;;;;;;;7.68;4.40;;;;;;;;;;6218089;28;20400;-75
2022/03/20 15:04:33;;;;;;;8.43;4.88;;;;;;;;;;6218725;28;20498;-74
2022/03/20 15:11:23;;;;;;;8.88;4.88;;;;;;;;;;6218696;28;20500;-74
2022/03/20 15:14:21;;;;;;;9.48;4.90;;;;;;;;;;6218497;28;20236;-74
2022/03/20 15:17:25;;;;;;;5.70;4.32;;;;;;;;;;6218627;28;20054;-73
2022/03/20 15:20:27;;;;;;;9.55;5.10;;;;;;;;;;6218548;28;20535;-75
2022/03/20 15:23:34;;;;;;;6.80;4.70;;;;;;;;;;6233772;28;20049;-75
2022/03/20 15:26:37;;;;;;;8.35;4.72;;;;;;;;;;6232411;28;20049;-74
2022/03/20 15:29:42;;;;;;;11.07;4.82;;;;;;;;;;6218259;28;20046;-74
2022/03/20 15:32:45;;;;;;;8.43;4.63;;;;;;;;;;6233075;28;20135;-75
2022/03/20 15:35:49;;;;;;;9.00;5.45;;;;;;;;;;6217737;28;20485;-76
2022/03/20 15:38:55;;;;;;;8.20;4.68;;;;;;;;;;6218034;28;20547;-75
2022/03/20 15:41:58;;;;;;;7.80;4.82;;;;;;;;;;6217944;28;20107;-75
2022/03/20 15:45:05;;;;;;;7.85;4.63;;;;;;;;;;6232922;28;20067;-73
2022/03/20 15:48:08;;;;;;;8.30;4.95;;;;;;;;;;6217660;28;20421;-75
2022/03/20 15:51:11;;;;;;;9.85;5.28;;;;;;;;;;6232440;28;20046;-75
2022/03/20 15:54:21;;;;;;;9.32;5.10;;;;;;;;;;6216358;28;20128;-74
2022/03/20 15:57:27;;;;;;;11.43;4.93;;;;;;;;;;6217896;28;20073;-73
2022/03/20 16:00:30;;;;;;;7.68;4.85;;;;;;;;;;6218287;28;20057;-74
2022/03/20 16:03:33;;;;;;;7.22;4.82;;;;;;;;;;6217696;28;20222;-74
2022/03/20 16:06:36;;;;;;;8.82;5.03;;;;;;;;;;6217681;28;20045;-75
2022/03/20 16:09:41;;;;;;;10.32;4.65;;;;;;;;;;6217360;28;20125;-75
2022/03/20 16:12:53;;;;;;;9.85;4.78;;;;;;;;;;6215337;28;20492;-73
2022/03/20 16:15:59;;;;;;;9.38;5.18;;;;;;;;;;6217154;28;20053;-73
2022/03/20 16:19:03;;;;;;;12.57;5.78;;;;;;;;;;6215054;28;20053;-75
2022/03/20 16:22:06;;;;;;;8.38;5.03;;;;;;;;;;6217414;28;20042;-73
2022/03/20 16:28:30;;;;;;;10.10;4.80;;;;;;;;;;6194944;28;19921;-75
2022/03/20 16:31:33;;;;;;;6.93;4.72;;;;;;;;;;6217777;28;20046;-73
2022/03/20 16:34:37;;;;;;;12.82;5.18;;;;;;;;;;6217285;28;20042;-72
2022/03/20 16:37:40;;;;;;;9.82;5.05;;;;;;;;;;6216653;28;20042;-74
2022/03/20 16:40:44;;;;;;;8.90;4.95;;;;;;;;;;6215969;28;20054;-73
2022/03/20 16:43:49;;;;;;;13.00;5.32;;;;;;;;;;6217169;28;20120;-73
2022/03/20 16:46:52;;;;;;;8.65;5.10;;;;;;;;;;6216697;28;20495;-73
2022/03/20 16:49:55;;;;;;;9.27;5.38;;;;;;;;;;6216544;28;20412;-75
2022/03/20 16:52:59;;;;;;;12.40;5.50;;;;;;;;;;6216454;28;20050;-75
2022/03/20 16:56:02;;;;;;;10.52;5.25;;;;;;;;;;6216881;28;20046;-73
2022/03/20 16:59:07;;;;;;;12.98;5.65;;;;;;;;;;6216493;28;20131;-72
2022/03/20 17:02:10;;;;;;;13.30;5.28;;;;;;;;;;6198652;28;20042;-75
2022/03/20 17:05:15;;;;;;;12.10;5.82;;;;;;;;;;6219250;28;20088;-73
2022/03/20 17:08:18;;;;;;;11.25;5.75;;;;;;;;;;6221314;28;20092;-73
2022/03/20 17:11:24;;;;;;;11.45;5.65;;;;;;;;;;6221021;28;20132;-73
2022/03/20 17:14:29;;;;;;;13.63;5.60;;;;;;;;;;6221208;28;20140;-74
2022/03/20 17:17:32;;;;;;;12.15;5.70;;;;;;;;;;6235233;28;20053;-73
2022/03/20 17:20:35;;;;;;;13.65;5.57;;;;;;;;;;6233542;28;20050;-74
2022/03/20 17:23:41;;;;;;;22.33;5.65;;;;;;;;;;6202716;28;20073;-75
2022/03/20 17:26:46;;;;;;;13.98;6.07;;;;;;;;;;6221105;28;20046;-73
2022/03/20 17:29:51;;;;;;;12.80;5.70;;;;;;;;;;6220836;28;20096;-74
2022/03/20 17:32:55;;;;;;;10.18;5.15;;;;;;;;;;6220084;28;20045;-73
2022/03/20 17:36:00;;;;;;;12.20;5.85;;;;;;;;;;6220226;28;20522;-73
2022/03/20 17:39:04;;;;;;;11.45;5.68;;;;;;;;;;6220083;28;20104;-74
2022/03/20 17:42:07;;;;;;;19.10;6.13;;;;;;;;;;6219672;28;20042;-74
2022/03/20 17:45:35;;;;;;;12.35;5.75;;;;;;;;;;6220017;28;20133;-73
2022/03/20 17:48:38;;;;;;;11.95;6.05;;;;;;;;;;6219486;28;20690;-73
2022/03/20 17:51:43;;;;;;;15.75;7.88;;;;;;;;;;6217232;28;20049;-74
2022/03/20 17:54:46;;;;;;;12.57;6.40;;;;;;;;;;6218158;28;20054;-74
2022/03/20 17:57:50;;;;;;;15.15;6.07;;;;;;;;;;6217547;28;20589;-75
2022/03/20 18:00:54;;;;;;;11.38;5.70;;;;;;;;;;6216569;28;20050;-73
2022/03/20 18:10:39;;;;;;;12.88;6.05;;;;;;;;;;6219504;28;20052;-74
2022/03/20 18:13:47;;;;;;;15.40;6.60;;;;;;;;;;6234643;28;20053;-75
2022/03/20 18:16:50;;;;;;;;;;;;;;;;;;6218827;28;20049;-74
2022/03/20 18:19:57;;;;;;;13.68;6.35;;;;;;;;;;6219318;28;20100;-75
2022/03/20 18:23:01;;;;;;;11.43;6.57;;;;;;;;;;6219957;28;20113;-74
2022/03/20 18:26:05;;;;;;;11.77;6.38;;;;;;;;;;6217509;28;20042;-74
2022/03/20 18:29:10;;;;;;;;;;;;;;;;;;6231615;28;20052;-74
2022/03/20 18:32:14;;;;;;;16.02;6.50;;;;;;;;;;6218116;28;19922;-75
2022/03/20 18:35:21;;;;;;;18.10;7.50;;;;;;;;;;6218020;28;20041;-73
2022/03/20 18:38:27;;;;;;;15.93;6.60;;;;;;;;;;6217391;28;20057;-73
2022/03/20 18:41:38;;;;;;;15.65;6.63;;;;;;;;;;6216177;28;20053;-73
2022/03/20 18:44:45;;;;;;;16.05;6.53;;;;;;;;;;6216403;28;20496;-73
2022/03/20 18:47:51;;;;;;;15.70;6.97;;;;;;;;;;6230263;28;20065;-72
2022/03/20 18:50:57;;;;;;;21.58;7.75;;;;;;;;;;6214949;28;20070;-73
2022/03/20 18:54:03;;;;;;;16.05;7.45;;;;;;;;;;6215366;28;20049;-73
2022/03/20 18:57:10;;;;;;;15.88;7.07;;;;;;;;;;6216941;28;20136;-72
2022/03/20 19:00:14;;;;;;;19.35;8.23;;;;;;;;;;6232439;28;20077;-73
2022/03/20 19:03:25;;;;;;;33.10;9.52;;;;;;;;;;6217025;28;20046;-73
2022/03/20 19:06:33;;;;;;;16.45;8.25;;;;;;;;;;6217951;28;20045;-74
2022/03/20 19:09:38;;;;;;;13.02;6.38;;;;;;;;;;6214772;28;20048;-74
2022/03/20 19:12:43;;;;;;;14.23;7.15;;;;;;;;;;6214920;28;20065;-73